sensor_id;sensor_type;location;lat;lon;timestamp;pressure;altitude;pressure_sealevel;temperature;humidity
33496;BME280;19836;55.812;37.560;2024-01-30T02:14:25;100659.88;;;1.67;79.14
33496;BME280;19836;55.812;37.560;2024-01-30T02:16:51;100664.19;;;1.63;79.11
33496;BME280;19836;55.812;37.560;2024-01-30T02:19:17;100666.81;;;1.62;78.92
33496;BME280;19836;55.812;37.560;2024-01-30T02:21:44;100659.75;;;1.62;78.98
33496;BME280;19836;55.812;37.560;2024-01-30T02:24:10;100659.75;;;1.61;78.98
33496;BME280;19836;55.812;37.560;2024-01-30T02:26:36;100655.31;;;1.60;78.76
33496;BME280;19836;55.812;37.560;2024-01-30T02:29:03;100657.09;;;1.62;79.00
33496;BME280;19836;55.812;37.560;2024-01-30T02:31:29;100660.63;;;1.61;78.95
33496;BME280;19836;55.812;37.560;2024-01-30T02:33:55;100654.50;;;1.64;79.26
33496;BME280;19836;55.812;37.560;2024-01-30T02:36:21;100654.63;;;1.70;79.17
33496;BME280;19836;55.812;37.560;2024-01-30T02:38:47;100657.34;;;1.73;79.21
33496;BME280;19836;55.812;37.560;2024-01-30T02:41:13;100653.03;;;1.78;79.13
33496;BME280;19836;55.812;37.560;2024-01-30T02:43:39;100649.59;;;1.82;79.05
33496;BME280;19836;55.812;37.560;2024-01-30T02:46:05;100647.84;;;1.84;79.20
33496;BME280;19836;55.812;37.560;2024-01-30T02:48:31;100654.91;;;1.83;78.61
33496;BME280;19836;55.812;37.560;2024-01-30T02:50:57;100648.75;;;1.84;78.87
33496;BME280;19836;55.812;37.560;2024-01-30T02:53:23;100637.28;;;1.84;78.65
33496;BME280;19836;55.812;37.560;2024-01-30T02:55:51;100646.94;;;1.82;78.73
33496;BME280;19836;55.812;37.560;2024-01-30T02:58:17;100661.09;;;1.85;78.75
33496;BME280;19836;55.812;37.560;2024-01-30T03:00:45;100658.50;;;1.87;78.85
33496;BME280;19836;55.812;37.560;2024-01-30T03:03:11;100662.13;;;1.92;78.91
33496;BME280;19836;55.812;37.560;2024-01-30T03:05:38;100667.41;;;1.92;78.82
33496;BME280;19836;55.812;37.560;2024-01-30T03:08:05;100668.28;;;1.92;78.79
33496;BME280;19836;55.812;37.560;2024-01-30T03:10:43;100675.31;;;1.92;78.82
33496;BME280;19836;55.812;37.560;2024-01-30T03:13:11;100672.72;;;1.95;78.95
33496;BME280;19836;55.812;37.560;2024-01-30T03:41:45;100673.94;;;2.12;78.07
33496;BME280;19836;55.812;37.560;2024-01-30T03:44:24;100675.78;;;2.16;78.08
33496;BME280;19836;55.812;37.560;2024-01-30T03:52:43;100692.63;;;2.21;77.93
33496;BME280;19836;55.812;37.560;2024-01-30T03:55:09;100687.34;;;2.21;78.09
33496;BME280;19836;55.812;37.560;2024-01-30T03:57:35;100692.59;;;2.19;77.87
33496;BME280;19836;55.812;37.560;2024-01-30T04:00:04;100698.81;;;2.23;77.76
33496;BME280;19836;55.812;37.560;2024-01-30T04:02:38;100693.53;;;2.23;78.08
33496;BME280;19836;55.812;37.560;2024-01-30T04:05:04;100701.53;;;2.26;78.20
33496;BME280;19836;55.812;37.560;2024-01-30T04:07:30;100701.53;;;2.26;77.99
33496;BME280;19836;55.812;37.560;2024-01-30T04:09:56;100708.59;;;2.27;78.11
33496;BME280;19836;55.812;37.560;2024-01-30T04:12:22;100699.72;;;2.25;78.11
33496;BME280;19836;55.812;37.560;2024-01-30T04:14:47;100694.44;;;2.25;78.11
33496;BME280;19836;55.812;37.560;2024-01-30T04:17:13;100684.75;;;2.25;77.88
33496;BME280;19836;55.812;37.560;2024-01-30T04:19:40;100691.88;;;2.29;78.18
33496;BME280;19836;55.812;37.560;2024-01-30T04:22:06;100690.19;;;2.33;78.17
33496;BME280;19836;55.812;37.560;2024-01-30T04:24:32;100687.59;;;2.36;78.28
33496;BME280;19836;55.812;37.560;2024-01-30T04:26:58;100679.66;;;2.37;77.99
33496;BME280;19836;55.812;37.560;2024-01-30T04:29:24;100681.47;;;2.38;78.14
33496;BME280;19836;55.812;37.560;2024-01-30T04:31:49;100678.84;;;2.38;78.04
33496;BME280;19836;55.812;37.560;2024-01-30T04:34:15;100674.41;;;2.39;77.82
33496;BME280;19836;55.812;37.560;2024-01-30T04:36:44;100669.09;;;2.37;77.80
33496;BME280;19836;55.812;37.560;2024-01-30T04:39:11;100682.38;;;2.40;77.78
33496;BME280;19836;55.812;37.560;2024-01-30T04:41:38;100684.19;;;2.43;77.54
33496;BME280;19836;55.812;37.560;2024-01-30T04:44:04;100690.38;;;2.45;77.69
33496;BME280;19836;55.812;37.560;2024-01-30T04:46:30;100690.38;;;2.43;77.76
33496;BME280;19836;55.812;37.560;2024-01-30T04:48:55;100697.47;;;2.46;77.82
33496;BME280;19836;55.812;37.560;2024-01-30T04:51:21;100691.28;;;2.45;77.64
33496;BME280;19836;55.812;37.560;2024-01-30T04:53:47;100692.22;;;2.49;77.63
33496;BME280;19836;55.812;37.560;2024-01-30T04:56:13;100696.72;;;2.53;77.83
33496;BME280;19836;55.812;37.560;2024-01-30T04:58:39;100682.59;;;2.54;77.62
33496;BME280;19836;55.812;37.560;2024-01-30T05:01:04;100670.25;;;2.53;77.83
33496;BME280;19836;55.812;37.560;2024-01-30T05:03:33;100673.81;;;2.53;77.51
33496;BME280;19836;55.812;37.560;2024-01-30T05:05:59;100664.13;;;2.55;77.58
33496;BME280;19836;55.812;37.560;2024-01-30T05:08:25;100680.03;;;2.57;77.53
33496;BME280;19836;55.812;37.560;2024-01-30T05:10:51;100672.97;;;2.56;77.63
33496;BME280;19836;55.812;37.560;2024-01-30T05:13:17;100681.78;;;2.56;77.63
33496;BME280;19836;55.812;37.560;2024-01-30T05:15:43;100675.59;;;2.57;77.57
33496;BME280;19836;55.812;37.560;2024-01-30T05:18:09;100684.47;;;2.59;77.85
33496;BME280;19836;55.812;37.560;2024-01-30T05:20:36;100689.78;;;2.61;77.54
33496;BME280;19836;55.812;37.560;2024-01-30T05:23:02;100688.94;;;2.62;77.68
33496;BME280;19836;55.812;37.560;2024-01-30T05:25:28;100695.97;;;2.61;77.56
33496;BME280;19836;55.812;37.560;2024-01-30T05:27:54;100696.00;;;2.63;77.67
33496;BME280;19836;55.812;37.560;2024-01-30T05:30:21;100701.31;;;2.64;77.47
33496;BME280;19836;55.812;37.560;2024-01-30T05:32:46;100698.72;;;2.69;77.54
33496;BME280;19836;55.812;37.560;2024-01-30T05:35:12;100695.22;;;2.70;77.63
33496;BME280;19836;55.812;37.560;2024-01-30T05:37:38;100704.03;;;2.69;77.43
33496;BME280;19836;55.812;37.560;2024-01-30T05:40:05;100695.28;;;2.73;77.47
33496;BME280;19836;55.812;37.560;2024-01-30T05:42:30;100694.38;;;2.72;77.33
33496;BME280;19836;55.812;37.560;2024-01-30T05:44:56;100699.69;;;2.74;77.47
33496;BME280;19836;55.812;37.560;2024-01-30T05:47:23;100703.31;;;2.79;77.46
33496;BME280;19836;55.812;37.560;2024-01-30T05:49:49;100702.44;;;2.80;77.53
33496;BME280;19836;55.812;37.560;2024-01-30T05:52:14;100712.16;;;2.81;77.39
33496;BME280;19836;55.812;37.560;2024-01-30T05:54:41;100713.94;;;2.83;77.24
33496;BME280;19836;55.812;37.560;2024-01-30T05:57:06;100707.72;;;2.80;77.08
33496;BME280;19836;55.812;37.560;2024-01-30T05:59:32;100714.75;;;2.78;76.96
33496;BME280;19836;55.812;37.560;2024-01-30T06:01:58;100729.78;;;2.79;77.12
33496;BME280;19836;55.812;37.560;2024-01-30T06:04:24;100717.44;;;2.79;77.22
33496;BME280;19836;55.812;37.560;2024-01-30T06:06:50;100724.53;;;2.83;77.16
33496;BME280;19836;55.812;37.560;2024-01-30T06:09:16;100721.06;;;2.86;77.15
33496;BME280;19836;55.812;37.560;2024-01-30T06:11:42;100732.59;;;2.89;77.29
33496;BME280;19836;55.812;37.560;2024-01-30T06:14:07;100711.41;;;2.88;77.06
33496;BME280;19836;55.812;37.560;2024-01-30T06:16:33;100726.41;;;2.89;77.27
33496;BME280;19836;55.812;37.560;2024-01-30T06:18:59;100729.13;;;2.92;77.14
33496;BME280;19836;55.812;37.560;2024-01-30T06:21:25;100728.28;;;2.96;77.08
33496;BME280;19836;55.812;37.560;2024-01-30T06:23:51;100730.94;;;2.97;76.91
33496;BME280;19836;55.812;37.560;2024-01-30T06:26:17;100736.28;;;2.99;76.88
33496;BME280;19836;55.812;37.560;2024-01-30T06:28:43;100733.66;;;3.00;76.96
33496;BME280;19836;55.812;37.560;2024-01-30T06:31:10;100736.34;;;3.02;77.08
33496;BME280;19836;55.812;37.560;2024-01-30T06:33:35;100746.91;;;3.03;76.86
33496;BME280;19836;55.812;37.560;2024-01-30T06:36:01;100738.13;;;3.06;76.43
33496;BME280;19836;55.812;37.560;2024-01-30T06:38:27;100743.50;;;3.09;76.70
33496;BME280;19836;55.812;37.560;2024-01-30T06:40:53;100736.44;;;3.11;76.61
33496;BME280;19836;55.812;37.560;2024-01-30T06:43:19;100734.69;;;3.10;76.65
33496;BME280;19836;55.812;37.560;2024-01-30T06:45:45;100741.81;;;3.14;76.42
33496;BME280;19836;55.812;37.560;2024-01-30T06:48:12;100752.41;;;3.14;76.68
33496;BME280;19836;55.812;37.560;2024-01-30T06:50:38;100752.44;;;3.15;76.42
33496;BME280;19836;55.812;37.560;2024-01-30T06:53:03;100745.41;;;3.19;76.30
33496;BME280;19836;55.812;37.560;2024-01-30T06:55:29;100745.41;;;3.19;76.27
33496;BME280;19836;55.812;37.560;2024-01-30T06:57:55;100740.06;;;3.16;76.06
33496;BME280;19836;55.812;37.560;2024-01-30T07:00:21;100740.03;;;3.13;75.92
33496;BME280;19836;55.812;37.560;2024-01-30T07:02:49;100749.75;;;3.14;76.08
33496;BME280;19836;55.812;37.560;2024-01-30T07:05:15;100755.94;;;3.16;76.02
33496;BME280;19836;55.812;37.560;2024-01-30T07:07:41;100749.84;;;3.20;76.27
33496;BME280;19836;55.812;37.560;2024-01-30T07:10:07;100759.63;;;3.24;76.12
33496;BME280;19836;55.812;37.560;2024-01-30T07:12:33;100755.28;;;3.29;75.98
33496;BME280;19836;55.812;37.560;2024-01-30T07:14:59;100761.47;;;3.31;76.04
33496;BME280;19836;55.812;37.560;2024-01-30T07:17:26;100756.19;;;3.31;75.96
33496;BME280;19836;55.812;37.560;2024-01-30T07:19:52;100760.63;;;3.33;75.87
33496;BME280;19836;55.812;37.560;2024-01-30T07:22:18;100756.31;;;3.40;75.71
33496;BME280;19836;55.812;37.560;2024-01-30T07:24:44;100759.06;;;3.46;75.73
33496;BME280;19836;55.812;37.560;2024-01-30T07:27:15;100768.00;;;3.54;75.69
33496;BME280;19836;55.812;37.560;2024-01-30T07:29:43;100762.63;;;3.48;75.19
33496;BME280;19836;55.812;37.560;2024-01-30T07:32:09;100778.41;;;3.40;75.15
33496;BME280;19836;55.812;37.560;2024-01-30T07:34:35;100777.47;;;3.37;75.29
33496;BME280;19836;55.812;37.560;2024-01-30T07:37:02;100780.06;;;3.34;75.22
33496;BME280;19836;55.812;37.560;2024-01-30T07:39:28;100777.38;;;3.31;75.43
33496;BME280;19836;55.812;37.560;2024-01-30T07:41:54;100782.66;;;3.31;75.50
33496;BME280;19836;55.812;37.560;2024-01-30T07:44:20;100786.28;;;3.36;75.42
33496;BME280;19836;55.812;37.560;2024-01-30T07:46:46;100786.38;;;3.43;75.41
33496;BME280;19836;55.812;37.560;2024-01-30T07:49:12;100782.09;;;3.51;75.52
33496;BME280;19836;55.812;37.560;2024-01-30T07:51:39;100767.97;;;3.52;75.34
33496;BME280;19836;55.812;37.560;2024-01-30T07:54:15;100769.78;;;3.55;75.21
33496;BME280;19836;55.812;37.560;2024-01-30T07:56:41;100768.97;;;3.59;75.32
33496;BME280;19836;55.812;37.560;2024-01-30T07:59:11;100771.66;;;3.63;75.27
33496;BME280;19836;55.812;37.560;2024-01-30T08:01:37;100769.13;;;3.69;75.10
33496;BME280;19836;55.812;37.560;2024-01-30T08:04:03;100782.44;;;3.75;75.08
33496;BME280;19836;55.812;37.560;2024-01-30T08:06:29;100782.47;;;3.78;75.07
33496;BME280;19836;55.812;37.560;2024-01-30T08:08:55;100769.25;;;3.80;74.71
33496;BME280;19836;55.812;37.560;2024-01-30T08:11:27;100771.03;;;3.81;74.86
33496;BME280;19836;55.812;37.560;2024-01-30T08:13:55;100760.38;;;3.76;74.76
33496;BME280;19836;55.812;37.560;2024-01-30T08:16:22;100773.59;;;3.75;74.66
33496;BME280;19836;55.812;37.560;2024-01-30T08:18:48;100767.41;;;3.73;74.86
33496;BME280;19836;55.812;37.560;2024-01-30T08:21:14;100778.00;;;3.73;74.83
33496;BME280;19836;55.812;37.560;2024-01-30T08:23:40;100778.88;;;3.72;74.63
33496;BME280;19836;55.812;37.560;2024-01-30T08:26:07;100778.88;;;3.73;74.60
33496;BME280;19836;55.812;37.560;2024-01-30T08:28:33;100782.44;;;3.75;74.52
33496;BME280;19836;55.812;37.560;2024-01-30T08:30:59;100789.56;;;3.78;74.66
33496;BME280;19836;55.812;37.560;2024-01-30T08:33:26;100786.91;;;3.78;74.33
33496;BME280;19836;55.812;37.560;2024-01-30T08:35:52;100778.00;;;3.73;74.21
33496;BME280;19836;55.812;37.560;2024-01-30T08:38:18;100777.09;;;3.72;74.64
33496;BME280;19836;55.812;37.560;2024-01-30T08:40:44;100770.06;;;3.76;74.71
33496;BME280;19836;55.812;37.560;2024-01-30T08:43:10;100770.16;;;3.83;74.43
33496;BME280;19836;55.812;37.560;2024-01-30T08:45:36;100763.22;;;3.91;74.23
33496;BME280;19836;55.812;37.560;2024-01-30T08:48:02;100773.00;;;3.98;74.44
33496;BME280;19836;55.812;37.560;2024-01-30T08:50:28;100759.84;;;4.03;74.24
33496;BME280;19836;55.812;37.560;2024-01-30T08:52:55;100780.13;;;4.01;74.14
33496;BME280;19836;55.812;37.560;2024-01-30T08:55:22;100784.56;;;4.00;74.02
33496;BME280;19836;55.812;37.560;2024-01-30T08:57:48;100780.09;;;3.98;74.02
33496;BME280;19836;55.812;37.560;2024-01-30T09:00:17;100783.56;;;3.94;73.94
33496;BME280;19836;55.812;37.560;2024-01-30T09:02:43;100773.03;;;3.97;73.95
33496;BME280;19836;55.812;37.560;2024-01-30T09:05:09;100773.88;;;3.96;73.99
33496;BME280;19836;55.812;37.560;2024-01-30T09:07:35;100771.19;;;3.93;73.88
33496;BME280;19836;55.812;37.560;2024-01-30T09:10:01;100769.41;;;3.93;73.88
33496;BME280;19836;55.812;37.560;2024-01-30T09:12:29;100772.97;;;3.94;74.20
33496;BME280;19836;55.812;37.560;2024-01-30T09:14:54;100781.88;;;3.99;74.16
33496;BME280;19836;55.812;37.560;2024-01-30T09:17:21;100777.53;;;4.05;73.92
33496;BME280;19836;55.812;37.560;2024-01-30T09:19:46;100776.72;;;4.12;73.97
33496;BME280;19836;55.812;37.560;2024-01-30T09:22:12;100775.94;;;4.19;73.59
33496;BME280;19836;55.812;37.560;2024-01-30T09:24:38;100773.38;;;4.27;73.45
33496;BME280;19836;55.812;37.560;2024-01-30T09:27:05;100768.22;;;4.40;73.57
33496;BME280;19836;55.812;37.560;2024-01-30T09:29:31;100769.31;;;4.59;73.15
33496;BME280;19836;55.812;37.560;2024-01-30T09:32:00;100768.53;;;4.73;73.08
33496;BME280;19836;55.812;37.560;2024-01-30T09:34:25;100774.72;;;4.69;72.54
33496;BME280;19836;55.812;37.560;2024-01-30T09:36:51;100768.50;;;4.64;72.32
33496;BME280;19836;55.812;37.560;2024-01-30T09:39:17;100767.63;;;4.68;72.17
33496;BME280;19836;55.812;37.560;2024-01-30T09:41:49;100773.88;;;4.72;72.31
33496;BME280;19836;55.812;37.560;2024-01-30T09:44:20;100768.53;;;4.69;72.21
33496;BME280;19836;55.812;37.560;2024-01-30T09:46:47;100762.28;;;4.64;72.48
33496;BME280;19836;55.812;37.560;2024-01-30T09:49:13;100763.97;;;4.57;72.37
33496;BME280;19836;55.812;37.560;2024-01-30T09:51:40;100750.66;;;4.53;72.27
33496;BME280;19836;55.812;37.560;2024-01-30T09:54:08;100761.28;;;4.53;72.40
33496;BME280;19836;55.812;37.560;2024-01-30T09:56:35;100748.94;;;4.58;72.19
33496;BME280;19836;55.812;37.560;2024-01-30T09:59:01;100752.59;;;4.69;72.30
33496;BME280;19836;55.812;37.560;2024-01-30T10:01:27;100761.50;;;4.74;71.83
33496;BME280;19836;55.812;37.560;2024-01-30T10:03:53;100750.81;;;4.71;71.76
33496;BME280;19836;55.812;37.560;2024-01-30T10:06:19;100751.69;;;4.68;71.65
33496;BME280;19836;55.812;37.560;2024-01-30T10:08:46;100756.06;;;4.63;71.67
33496;BME280;19836;55.812;37.560;2024-01-30T10:11:12;100752.50;;;4.60;71.67
33496;BME280;19836;55.812;37.560;2024-01-30T10:13:39;100759.56;;;4.61;71.87
33496;BME280;19836;55.812;37.560;2024-01-30T10:16:06;100762.28;;;4.65;71.94
33496;BME280;19836;55.812;37.560;2024-01-30T10:18:32;100772.06;;;4.71;71.74
33496;BME280;19836;55.812;37.560;2024-01-30T10:20:59;100754.41;;;4.73;72.00
33496;BME280;19836;55.812;37.560;2024-01-30T10:23:24;100751.78;;;4.74;71.48
33496;BME280;19836;55.812;37.560;2024-01-30T10:25:51;100752.59;;;4.69;71.30
33496;BME280;19836;55.812;37.560;2024-01-30T10:28:17;100763.13;;;4.61;71.41
33496;BME280;19836;55.812;37.560;2024-01-30T10:30:43;100764.03;;;4.62;71.59
33496;BME280;19836;55.812;37.560;2024-01-30T10:33:09;100757.78;;;4.57;71.60
33496;BME280;19836;55.812;37.560;2024-01-30T10:35:35;100748.03;;;4.54;71.62
33496;BME280;19836;55.812;37.560;2024-01-30T10:38:01;100755.97;;;4.51;71.74
33496;BME280;19836;55.812;37.560;2024-01-30T10:40:28;100763.91;;;4.51;71.64
33496;BME280;19836;55.812;37.560;2024-01-30T10:42:55;100747.13;;;4.54;72.05
33496;BME280;19836;55.812;37.560;2024-01-30T10:45:22;100747.22;;;4.63;71.76
33496;BME280;19836;55.812;37.560;2024-01-30T10:47:50;100742.06;;;4.78;71.88
33496;BME280;19836;55.812;37.560;2024-01-30T10:50:16;100750.13;;;4.91;71.67
33496;BME280;19836;55.812;37.560;2024-01-30T10:52:42;100744.91;;;5.00;71.33
33496;BME280;19836;55.812;37.560;2024-01-30T10:55:09;100752.06;;;5.10;71.18
33496;BME280;19836;55.812;37.560;2024-01-30T10:57:36;100744.16;;;5.16;70.86
33496;BME280;19836;55.812;37.560;2024-01-30T11:00:04;100752.13;;;5.21;70.69
33496;BME280;19836;55.812;37.560;2024-01-30T11:02:40;100744.16;;;5.18;70.39
33496;BME280;19836;55.812;37.560;2024-01-30T11:05:07;100737.91;;;5.11;70.47
33496;BME280;19836;55.812;37.560;2024-01-30T11:07:34;100748.50;;;5.07;70.42
33496;BME280;19836;55.812;37.560;2024-01-30T11:10:02;100758.22;;;5.02;70.33
33496;BME280;19836;55.812;37.560;2024-01-30T11:12:37;100760.78;;;4.96;70.61
33496;BME280;19836;55.812;37.560;2024-01-30T11:15:18;100762.56;;;4.94;70.52
33496;BME280;19836;55.812;37.560;2024-01-30T11:17:53;100765.16;;;4.91;70.91
33496;BME280;19836;55.812;37.560;2024-01-30T11:20:25;100763.31;;;4.81;70.60
33496;BME280;19836;55.812;37.560;2024-01-30T11:22:53;100754.41;;;4.73;70.90
33496;BME280;19836;55.812;37.560;2024-01-30T11:25:23;100765.88;;;4.70;70.79
33496;BME280;19836;55.812;37.560;2024-01-30T11:27:53;100768.47;;;4.63;70.79
33496;BME280;19836;55.812;37.560;2024-01-30T11:30:30;100760.44;;;4.57;70.83
33496;BME280;19836;55.812;37.560;2024-01-30T11:33:11;100768.38;;;4.54;71.08
33496;BME280;19836;55.812;37.560;2024-01-30T11:35:40;100773.63;;;4.49;71.05
33496;BME280;19836;55.812;37.560;2024-01-30T11:38:07;100779.84;;;4.51;71.18
33496;BME280;19836;55.812;37.560;2024-01-30T11:40:34;100786.91;;;4.52;71.23
33496;BME280;19836;55.812;37.560;2024-01-30T11:43:01;100791.34;;;4.52;71.29
33496;BME280;19836;55.812;37.560;2024-01-30T11:45:28;100790.44;;;4.51;71.50
33496;BME280;19836;55.812;37.560;2024-01-30T11:47:55;100796.66;;;4.52;71.27
33496;BME280;19836;55.812;37.560;2024-01-30T11:50:21;100790.44;;;4.50;71.55
33496;BME280;19836;55.812;37.560;2024-01-30T11:52:48;100793.97;;;4.49;71.25
33496;BME280;19836;55.812;37.560;2024-01-30T11:55:15;100802.81;;;4.49;71.61
33496;BME280;19836;55.812;37.560;2024-01-30T11:57:41;100801.91;;;4.49;71.69
33496;BME280;19836;55.812;37.560;2024-01-30T12:00:28;100806.34;;;4.47;71.55
33496;BME280;19836;55.812;37.560;2024-01-30T12:02:56;100812.53;;;4.49;71.65
33496;BME280;19836;55.812;37.560;2024-01-30T12:05:23;100809.88;;;4.49;71.70
33496;BME280;19836;55.812;37.560;2024-01-30T12:07:49;100809.91;;;4.50;71.77
33496;BME280;19836;55.812;37.560;2024-01-30T12:10:16;100812.59;;;4.52;71.89
33496;BME280;19836;55.812;37.560;2024-01-30T12:12:45;100808.13;;;4.49;71.85
33496;BME280;19836;55.812;37.560;2024-01-30T12:15:12;100801.03;;;4.48;71.86
33496;BME280;19836;55.812;37.560;2024-01-30T12:17:38;100801.88;;;4.46;71.97
33496;BME280;19836;55.812;37.560;2024-01-30T12:20:15;100803.63;;;4.44;71.99
33496;BME280;19836;55.812;37.560;2024-01-30T12:22:43;100802.72;;;4.43;71.71
33496;BME280;19836;55.812;37.560;2024-01-30T12:25:11;100809.84;;;4.46;72.04
33496;BME280;19836;55.812;37.560;2024-01-30T12:27:38;100800.16;;;4.48;71.95
33496;BME280;19836;55.812;37.560;2024-01-30T12:30:11;100806.31;;;4.45;71.93
33496;BME280;19836;55.812;37.560;2024-01-30T12:32:39;100803.69;;;4.47;72.14
33496;BME280;19836;55.812;37.560;2024-01-30T12:35:13;100797.53;;;4.52;72.06
33496;BME280;19836;55.812;37.560;2024-01-30T12:37:40;100799.34;;;4.55;72.17
33496;BME280;19836;55.812;37.560;2024-01-30T12:40:09;100805.56;;;4.57;72.27
33496;BME280;19836;55.812;37.560;2024-01-30T12:42:37;100804.63;;;4.55;71.98
33496;BME280;19836;55.812;37.560;2024-01-30T12:45:03;100805.53;;;4.54;72.02
33496;BME280;19836;55.812;37.560;2024-01-30T12:47:30;100804.63;;;4.53;71.75
33496;BME280;19836;55.812;37.560;2024-01-30T12:49:56;100805.53;;;4.54;72.16
33496;BME280;19836;55.812;37.560;2024-01-30T12:52:22;100803.75;;;4.53;71.98
33496;BME280;19836;55.812;37.560;2024-01-30T12:54:49;100817.88;;;4.52;72.12
33496;BME280;19836;55.812;37.560;2024-01-30T12:57:15;100814.34;;;4.53;72.06
33496;BME280;19836;55.812;37.560;2024-01-30T12:59:43;100821.44;;;4.54;72.12
33496;BME280;19836;55.812;37.560;2024-01-30T13:02:10;100809.00;;;4.50;72.05
33496;BME280;19836;55.812;37.560;2024-01-30T13:04:36;100814.31;;;4.50;72.22
33496;BME280;19836;55.812;37.560;2024-01-30T13:07:02;100809.84;;;4.47;72.20
33496;BME280;19836;55.812;37.560;2024-01-30T13:09:30;100816.88;;;4.42;72.08
33496;BME280;19836;55.812;37.560;2024-01-30T13:11:57;100802.72;;;4.40;71.94
33496;BME280;19836;55.812;37.560;2024-01-30T13:14:24;100812.44;;;4.40;72.15
33496;BME280;19836;55.812;37.560;2024-01-30T13:16:50;100823.03;;;4.40;72.05
33496;BME280;19836;55.812;37.560;2024-01-30T13:19:16;100819.44;;;4.32;71.84
33496;BME280;19836;55.812;37.560;2024-01-30T13:21:42;100832.59;;;4.26;72.17
33496;BME280;19836;55.812;37.560;2024-01-30T13:24:08;100826.34;;;4.21;72.18
33496;BME280;19836;55.812;37.560;2024-01-30T13:26:35;100826.28;;;4.15;72.27
33496;BME280;19836;55.812;37.560;2024-01-30T13:29:01;100826.25;;;4.12;72.10
33496;BME280;19836;55.812;37.560;2024-01-30T13:31:27;100824.47;;;4.12;72.37
33496;BME280;19836;55.812;37.560;2024-01-30T13:33:54;100830.69;;;4.13;72.50
33496;BME280;19836;55.812;37.560;2024-01-30T13:36:20;100825.28;;;4.08;72.36
33496;BME280;19836;55.812;37.560;2024-01-30T13:38:47;100835.03;;;4.08;72.67
33496;BME280;19836;55.812;37.560;2024-01-30T13:41:13;100828.81;;;4.07;72.61
33496;BME280;19836;55.812;37.560;2024-01-30T13:43:39;100822.59;;;4.04;72.85
33496;BME280;19836;55.812;37.560;2024-01-30T13:46:05;100826.06;;;4.00;73.01
33496;BME280;19836;55.812;37.560;2024-01-30T13:48:31;100826.97;;;4.00;72.93
33496;BME280;19836;55.812;37.560;2024-01-30T13:50:57;100827.84;;;4.01;73.06
33496;BME280;19836;55.812;37.560;2024-01-30T13:53:23;100826.06;;;4.00;73.37
33496;BME280;19836;55.812;37.560;2024-01-30T13:55:49;100826.03;;;3.95;73.46
33496;BME280;19836;55.812;37.560;2024-01-30T13:58:15;100833.06;;;3.95;73.42
33496;BME280;19836;55.812;37.560;2024-01-30T14:00:41;100836.56;;;3.92;73.51
33496;BME280;19836;55.812;37.560;2024-01-30T14:03:07;100841.84;;;3.91;73.44
33496;BME280;19836;55.812;37.560;2024-01-30T14:05:33;100844.50;;;3.91;73.65
33496;BME280;19836;55.812;37.560;2024-01-30T14:07:59;100851.59;;;3.92;73.78
33496;BME280;19836;55.812;37.560;2024-01-30T14:10:26;100848.94;;;3.93;73.94
33496;BME280;19836;55.812;37.560;2024-01-30T14:12:52;100852.50;;;3.94;74.12
33496;BME280;19836;55.812;37.560;2024-01-30T14:15:18;100848.97;;;3.95;73.99
33496;BME280;19836;55.812;37.560;2024-01-30T14:17:45;100858.72;;;3.97;73.97
33496;BME280;19836;55.812;37.560;2024-01-30T14:20:17;100856.06;;;3.96;73.99
33496;BME280;19836;55.812;37.560;2024-01-30T14:22:43;100857.81;;;3.94;74.01
33496;BME280;19836;55.812;37.560;2024-01-30T14:25:09;100854.25;;;3.92;74.00
33496;BME280;19836;55.812;37.560;2024-01-30T14:27:35;100855.09;;;3.91;73.75
33496;BME280;19836;55.812;37.560;2024-01-30T14:30:01;100866.56;;;3.90;73.81
33496;BME280;19836;55.812;37.560;2024-01-30T14:32:29;100861.28;;;3.90;74.08
33496;BME280;19836;55.812;37.560;2024-01-30T14:34:55;100861.31;;;3.91;74.23
33496;BME280;19836;55.812;37.560;2024-01-30T14:37:21;100875.47;;;3.92;74.00
33496;BME280;19836;55.812;37.560;2024-01-30T14:39:47;100854.25;;;3.92;74.15
33496;BME280;19836;55.812;37.560;2024-01-30T14:42:14;100871.03;;;3.92;74.29
33496;BME280;19836;55.812;37.560;2024-01-30T14:44:41;100863.13;;;3.94;74.40
33496;BME280;19836;55.812;37.560;2024-01-30T14:47:07;100879.03;;;3.94;74.18
33496;BME280;19836;55.812;37.560;2024-01-30T14:49:33;100864.88;;;3.92;74.22
33496;BME280;19836;55.812;37.560;2024-01-30T14:51:59;100861.28;;;3.90;74.02
33496;BME280;19836;55.812;37.560;2024-01-30T14:54:26;100858.59;;;3.87;74.22
33496;BME280;19836;55.812;37.560;2024-01-30T14:56:53;100862.09;;;3.86;74.00
33496;BME280;19836;55.812;37.560;2024-01-30T14:59:19;100876.25;;;3.86;74.35
33496;BME280;19836;55.812;37.560;2024-01-30T15:01:45;100877.13;;;3.85;74.35
33496;BME280;19836;55.812;37.560;2024-01-30T15:04:12;100869.13;;;3.82;74.15
33496;BME280;19836;55.812;37.560;2024-01-30T15:06:38;100873.53;;;3.83;74.12
33496;BME280;19836;55.812;37.560;2024-01-30T15:09:04;100876.25;;;3.86;74.03
33496;BME280;19836;55.812;37.560;2024-01-30T15:11:30;100874.53;;;3.90;74.11
33496;BME280;19836;55.812;37.560;2024-01-30T15:13:58;100881.63;;;3.89;73.92
33496;BME280;19836;55.812;37.560;2024-01-30T15:16:24;100876.19;;;3.83;73.92
33496;BME280;19836;55.812;37.560;2024-01-30T15:18:50;100879.69;;;3.81;74.28
33496;BME280;19836;55.812;37.560;2024-01-30T15:21:15;100878.72;;;3.76;74.01
33496;BME280;19836;55.812;37.560;2024-01-30T15:23:46;100890.22;;;3.75;74.10
33496;BME280;19836;55.812;37.560;2024-01-30T15:26:12;100889.31;;;3.73;74.23
33496;BME280;19836;55.812;37.560;2024-01-30T15:28:40;100901.63;;;3.71;74.14
33496;BME280;19836;55.812;37.560;2024-01-30T15:31:07;100901.53;;;3.65;74.45
33496;BME280;19836;55.812;37.560;2024-01-30T15:33:33;100897.13;;;3.65;74.49